sensor_id;sensor_type;location;lat;lon;timestamp;temperature;humidity
61386;DHT22;47256;18.904;-99.054;2023-03-14T00:01:26;29.90;40.80
61386;DHT22;47256;18.904;-99.054;2023-03-14T00:03:54;29.80;40.70
61386;DHT22;47256;18.904;-99.054;2023-03-14T00:06:21;29.80;40.50
61386;DHT22;47256;18.904;-99.054;2023-03-14T00:08:50;29.70;41.20
61386;DHT22;47256;18.904;-99.054;2023-03-14T00:11:20;29.70;41.90
61386;DHT22;47256;18.904;-99.054;2023-03-14T00:13:52;29.60;41.60
61386;DHT22;47256;18.904;-99.054;2023-03-14T00:16:21;29.50;41.00
61386;DHT22;47256;18.904;-99.054;2023-03-14T00:18:49;29.40;41.40
61386;DHT22;47256;18.904;-99.054;2023-03-14T00:21:18;29.30;41.50
61386;DHT22;47256;18.904;-99.054;2023-03-14T00:23:45;29.30;42.20
61386;DHT22;47256;18.904;-99.054;2023-03-14T00:26:15;29.30;42.10
61386;DHT22;47256;18.904;-99.054;2023-03-14T00:28:44;29.20;42.00
61386;DHT22;47256;18.904;-99.054;2023-03-14T00:31:15;29.10;42.30
61386;DHT22;47256;18.904;-99.054;2023-03-14T00:33:44;29.10;42.50
61386;DHT22;47256;18.904;-99.054;2023-03-14T00:36:15;29.00;42.70
61386;DHT22;47256;18.904;-99.054;2023-03-14T00:38:48;28.90;42.60
61386;DHT22;47256;18.904;-99.054;2023-03-14T00:41:23;28.90;42.40
61386;DHT22;47256;18.904;-99.054;2023-03-14T00:43:51;28.90;42.00
61386;DHT22;47256;18.904;-99.054;2023-03-14T00:46:20;28.90;42.20
61386;DHT22;47256;18.904;-99.054;2023-03-14T00:48:47;28.90;43.10
61386;DHT22;47256;18.904;-99.054;2023-03-14T00:51:16;28.80;42.40
61386;DHT22;47256;18.904;-99.054;2023-03-14T00:53:49;28.80;42.50
61386;DHT22;47256;18.904;-99.054;2023-03-14T00:56:18;28.80;42.60
61386;DHT22;47256;18.904;-99.054;2023-03-14T00:58:45;28.70;42.60
61386;DHT22;47256;18.904;-99.054;2023-03-14T01:01:17;28.70;43.10
61386;DHT22;47256;18.904;-99.054;2023-03-14T01:03:46;28.60;42.80
61386;DHT22;47256;18.904;-99.054;2023-03-14T01:06:22;28.60;42.60
61386;DHT22;47256;18.904;-99.054;2023-03-14T01:08:52;28.60;42.50
61386;DHT22;47256;18.904;-99.054;2023-03-14T01:11:25;28.60;43.20
61386;DHT22;47256;18.904;-99.054;2023-03-14T01:13:56;28.60;42.90
61386;DHT22;47256;18.904;-99.054;2023-03-14T01:16:30;28.60;42.70
61386;DHT22;47256;18.904;-99.054;2023-03-14T01:19:01;28.50;43.10
61386;DHT22;47256;18.904;-99.054;2023-03-14T01:21:31;28.50;42.60
61386;DHT22;47256;18.904;-99.054;2023-03-14T01:23:59;28.50;42.90
61386;DHT22;47256;18.904;-99.054;2023-03-14T01:26:29;28.50;42.80
61386;DHT22;47256;18.904;-99.054;2023-03-14T01:28:58;28.50;42.90
61386;DHT22;47256;18.904;-99.054;2023-03-14T01:31:27;28.50;43.10
61386;DHT22;47256;18.904;-99.054;2023-03-14T01:33:55;28.40;42.60
61386;DHT22;47256;18.904;-99.054;2023-03-14T01:36:22;28.40;43.60
61386;DHT22;47256;18.904;-99.054;2023-03-14T01:38:55;28.40;43.20
61386;DHT22;47256;18.904;-99.054;2023-03-14T01:41:25;28.40;44.50
61386;DHT22;47256;18.904;-99.054;2023-03-14T01:43:57;28.40;43.70
61386;DHT22;47256;18.904;-99.054;2023-03-14T01:46:45;28.30;43.80
61386;DHT22;47256;18.904;-99.054;2023-03-14T01:52:24;27.90;44.00
61386;DHT22;47256;18.904;-99.054;2023-03-14T01:55:17;27.90;43.90
61386;DHT22;47256;18.904;-99.054;2023-03-14T01:57:52;27.90;44.70
61386;DHT22;47256;18.904;-99.054;2023-03-14T02:00:23;27.90;44.60
61386;DHT22;47256;18.904;-99.054;2023-03-14T02:03:09;27.80;44.80
61386;DHT22;47256;18.904;-99.054;2023-03-14T02:05:41;27.70;45.20
61386;DHT22;47256;18.904;-99.054;2023-03-14T02:08:16;27.60;44.90
61386;DHT22;47256;18.904;-99.054;2023-03-14T02:10:55;27.70;44.50
61386;DHT22;47256;18.904;-99.054;2023-03-14T02:13:43;27.60;44.60
61386;DHT22;47256;18.904;-99.054;2023-03-14T02:16:36;27.60;44.30
61386;DHT22;47256;18.904;-99.054;2023-03-14T02:19:07;27.70;44.10
61386;DHT22;47256;18.904;-99.054;2023-03-14T02:22:13;27.70;44.50
61386;DHT22;47256;18.904;-99.054;2023-03-14T02:27:34;27.60;44.20
61386;DHT22;47256;18.904;-99.054;2023-03-14T02:30:06;27.70;44.00
61386;DHT22;47256;18.904;-99.054;2023-03-14T02:32:41;27.70;43.10
61386;DHT22;47256;18.904;-99.054;2023-03-14T02:35:25;27.80;42.70
61386;DHT22;47256;18.904;-99.054;2023-03-14T02:40:54;28.00;42.40
61386;DHT22;47256;18.904;-99.054;2023-03-14T02:43:40;28.00;42.40
61386;DHT22;47256;18.904;-99.054;2023-03-14T02:46:16;28.10;42.10
61386;DHT22;47256;18.904;-99.054;2023-03-14T02:49:09;28.10;42.40
61386;DHT22;47256;18.904;-99.054;2023-03-14T02:51:41;28.10;41.90
61386;DHT22;47256;18.904;-99.054;2023-03-14T02:54:23;28.10;42.30
61386;DHT22;47256;18.904;-99.054;2023-03-14T02:57:00;28.20;42.80
61386;DHT22;47256;18.904;-99.054;2023-03-14T02:59:35;28.20;43.20
61386;DHT22;47256;18.904;-99.054;2023-03-14T03:02:09;28.10;43.50
61386;DHT22;47256;18.904;-99.054;2023-03-14T03:04:41;28.10;44.60
61386;DHT22;47256;18.904;-99.054;2023-03-14T03:07:19;28.10;44.20
61386;DHT22;47256;18.904;-99.054;2023-03-14T03:09:47;28.10;44.20
61386;DHT22;47256;18.904;-99.054;2023-03-14T03:12:20;28.10;44.50
61386;DHT22;47256;18.904;-99.054;2023-03-14T03:14:53;28.10;45.70
61386;DHT22;47256;18.904;-99.054;2023-03-14T03:17:23;28.00;44.90
61386;DHT22;47256;18.904;-99.054;2023-03-14T03:19:54;27.90;43.80
61386;DHT22;47256;18.904;-99.054;2023-03-14T03:22:28;27.80;43.80
61386;DHT22;47256;18.904;-99.054;2023-03-14T03:24:59;27.80;43.60
61386;DHT22;47256;18.904;-99.054;2023-03-14T03:27:35;27.70;43.90
61386;DHT22;47256;18.904;-99.054;2023-03-14T03:30:10;27.70;43.80
61386;DHT22;47256;18.904;-99.054;2023-03-14T03:32:42;27.60;43.60
61386;DHT22;47256;18.904;-99.054;2023-03-14T03:35:17;27.60;43.90
61386;DHT22;47256;18.904;-99.054;2023-03-14T03:37:51;27.50;45.40
61386;DHT22;47256;18.904;-99.054;2023-03-14T03:40:49;27.30;45.30
61386;DHT22;47256;18.904;-99.054;2023-03-14T03:43:25;27.30;46.20
61386;DHT22;47256;18.904;-99.054;2023-03-14T03:45:56;27.30;45.50
61386;DHT22;47256;18.904;-99.054;2023-03-14T03:48:25;27.30;45.50
61386;DHT22;47256;18.904;-99.054;2023-03-14T03:50:55;27.30;46.20
61386;DHT22;47256;18.904;-99.054;2023-03-14T03:53:51;27.00;45.90
61386;DHT22;47256;18.904;-99.054;2023-03-14T03:56:27;26.80;46.50
61386;DHT22;47256;18.904;-99.054;2023-03-14T03:59:02;26.60;47.20
61386;DHT22;47256;18.904;-99.054;2023-03-14T04:01:33;26.40;47.50
61386;DHT22;47256;18.904;-99.054;2023-03-14T04:04:08;26.30;48.70
61386;DHT22;47256;18.904;-99.054;2023-03-14T04:06:38;26.20;49.00
61386;DHT22;47256;18.904;-99.054;2023-03-14T04:09:15;26.30;48.80
61386;DHT22;47256;18.904;-99.054;2023-03-14T04:11:47;26.40;49.20
61386;DHT22;47256;18.904;-99.054;2023-03-14T04:14:32;26.40;49.40
61386;DHT22;47256;18.904;-99.054;2023-03-14T04:17:17;26.40;48.90
61386;DHT22;47256;18.904;-99.054;2023-03-14T04:19:48;26.50;49.00
61386;DHT22;47256;18.904;-99.054;2023-03-14T04:22:42;26.40;50.20
61386;DHT22;47256;18.904;-99.054;2023-03-14T04:25:13;26.30;50.10
61386;DHT22;47256;18.904;-99.054;2023-03-14T04:27:51;26.10;50.00
61386;DHT22;47256;18.904;-99.054;2023-03-14T04:30:27;26.20;49.90
61386;DHT22;47256;18.904;-99.054;2023-03-14T04:33:02;26.30;49.90
61386;DHT22;47256;18.904;-99.054;2023-03-14T04:35:34;26.40;50.90
61386;DHT22;47256;18.904;-99.054;2023-03-14T04:38:09;26.40;50.20
61386;DHT22;47256;18.904;-99.054;2023-03-14T04:40:40;26.40;50.20
61386;DHT22;47256;18.904;-99.054;2023-03-14T04:43:20;26.30;50.50
61386;DHT22;47256;18.904;-99.054;2023-03-14T04:45:56;26.20;50.60
61386;DHT22;47256;18.904;-99.054;2023-03-14T04:48:26;26.10;51.10
61386;DHT22;47256;18.904;-99.054;2023-03-14T04:50:55;26.10;51.60
61386;DHT22;47256;18.904;-99.054;2023-03-14T04:53:22;26.10;50.70
61386;DHT22;47256;18.904;-99.054;2023-03-14T04:55:55;26.10;50.50
61386;DHT22;47256;18.904;-99.054;2023-03-14T04:58:27;26.00;51.40
61386;DHT22;47256;18.904;-99.054;2023-03-14T05:01:04;26.00;52.20
61386;DHT22;47256;18.904;-99.054;2023-03-14T05:03:51;26.00;52.10
61386;DHT22;47256;18.904;-99.054;2023-03-14T05:06:30;25.90;52.70
61386;DHT22;47256;18.904;-99.054;2023-03-14T05:09:31;25.80;52.20
61386;DHT22;47256;18.904;-99.054;2023-03-14T05:12:23;25.70;53.50
61386;DHT22;47256;18.904;-99.054;2023-03-14T05:14:57;25.60;54.00
61386;DHT22;47256;18.904;-99.054;2023-03-14T05:17:38;25.50;55.20
61386;DHT22;47256;18.904;-99.054;2023-03-14T05:20:26;25.20;53.70
61386;DHT22;47256;18.904;-99.054;2023-03-14T05:22:54;25.20;53.50
61386;DHT22;47256;18.904;-99.054;2023-03-14T05:25:48;25.20;53.40
61386;DHT22;47256;18.904;-99.054;2023-03-14T05:28:33;25.20;54.20
61386;DHT22;47256;18.904;-99.054;2023-03-14T05:31:19;25.20;54.20
61386;DHT22;47256;18.904;-99.054;2023-03-14T05:34:11;25.20;53.90
61386;DHT22;47256;18.904;-99.054;2023-03-14T05:37:01;25.20;54.10
61386;DHT22;47256;18.904;-99.054;2023-03-14T05:39:41;25.20;53.50
61386;DHT22;47256;18.904;-99.054;2023-03-14T05:42:22;25.30;54.10
61386;DHT22;47256;18.904;-99.054;2023-03-14T05:45:13;25.40;53.90
61386;DHT22;47256;18.904;-99.054;2023-03-14T05:48:10;25.40;53.90
61386;DHT22;47256;18.904;-99.054;2023-03-14T05:50:57;25.40;54.10
61386;DHT22;47256;18.904;-99.054;2023-03-14T05:53:38;25.20;53.50
61386;DHT22;47256;18.904;-99.054;2023-03-14T05:56:25;25.00;53.50
61386;DHT22;47256;18.904;-99.054;2023-03-14T05:59:11;24.90;53.30
61386;DHT22;47256;18.904;-99.054;2023-03-14T06:02:04;24.80;54.10
61386;DHT22;47256;18.904;-99.054;2023-03-14T06:04:43;24.80;55.80
61386;DHT22;47256;18.904;-99.054;2023-03-14T06:07:14;24.70;55.60
61386;DHT22;47256;18.904;-99.054;2023-03-14T06:09:42;24.70;54.90
61386;DHT22;47256;18.904;-99.054;2023-03-14T06:12:10;24.70;55.50
61386;DHT22;47256;18.904;-99.054;2023-03-14T06:14:42;24.80;55.30
61386;DHT22;47256;18.904;-99.054;2023-03-14T06:17:11;24.70;56.30
61386;DHT22;47256;18.904;-99.054;2023-03-14T06:19:47;24.70;55.70
61386;DHT22;47256;18.904;-99.054;2023-03-14T06:22:15;24.70;56.40
61386;DHT22;47256;18.904;-99.054;2023-03-14T06:24:43;24.50;56.70
61386;DHT22;47256;18.904;-99.054;2023-03-14T06:27:16;24.40;57.40
61386;DHT22;47256;18.904;-99.054;2023-03-14T06:29:45;24.30;55.80
61386;DHT22;47256;18.904;-99.054;2023-03-14T06:32:13;24.40;55.50
61386;DHT22;47256;18.904;-99.054;2023-03-14T06:34:40;24.40;56.30
61386;DHT22;47256;18.904;-99.054;2023-03-14T06:37:07;24.40;56.20
61386;DHT22;47256;18.904;-99.054;2023-03-14T06:39:36;24.50;56.00
61386;DHT22;47256;18.904;-99.054;2023-03-14T06:42:17;24.50;55.70
61386;DHT22;47256;18.904;-99.054;2023-03-14T06:44:45;24.50;55.80
61386;DHT22;47256;18.904;-99.054;2023-03-14T06:47:13;24.50;57.20
61386;DHT22;47256;18.904;-99.054;2023-03-14T06:49:45;24.40;56.00
61386;DHT22;47256;18.904;-99.054;2023-03-14T06:52:14;24.30;54.90
61386;DHT22;47256;18.904;-99.054;2023-03-14T06:54:44;24.30;55.00
61386;DHT22;47256;18.904;-99.054;2023-03-14T06:57:11;24.30;54.30
61386;DHT22;47256;18.904;-99.054;2023-03-14T06:59:39;24.20;55.20
61386;DHT22;47256;18.904;-99.054;2023-03-14T07:02:11;24.20;55.00
61386;DHT22;47256;18.904;-99.054;2023-03-14T07:04:40;24.10;55.30
61386;DHT22;47256;18.904;-99.054;2023-03-14T07:07:08;24.00;55.60
61386;DHT22;47256;18.904;-99.054;2023-03-14T07:09:36;24.00;55.50
61386;DHT22;47256;18.904;-99.054;2023-03-14T07:12:04;23.60;54.80
61386;DHT22;47256;18.904;-99.054;2023-03-14T07:14:32;23.60;55.90
61386;DHT22;47256;18.904;-99.054;2023-03-14T07:17:00;23.60;54.80
61386;DHT22;47256;18.904;-99.054;2023-03-14T07:19:28;23.70;54.70
61386;DHT22;47256;18.904;-99.054;2023-03-14T07:21:55;23.70;56.00
61386;DHT22;47256;18.904;-99.054;2023-03-14T07:24:26;23.80;55.30
61386;DHT22;47256;18.904;-99.054;2023-03-14T07:26:55;23.80;55.30
61386;DHT22;47256;18.904;-99.054;2023-03-14T07:29:22;23.80;56.00
61386;DHT22;47256;18.904;-99.054;2023-03-14T07:31:52;23.70;56.30
61386;DHT22;47256;18.904;-99.054;2023-03-14T07:34:20;23.80;55.20
61386;DHT22;47256;18.904;-99.054;2023-03-14T07:36:51;23.80;55.20
61386;DHT22;47256;18.904;-99.054;2023-03-14T07:39:18;23.70;55.10
61386;DHT22;47256;18.904;-99.054;2023-03-14T07:42:06;23.80;54.90
61386;DHT22;47256;18.904;-99.054;2023-03-14T07:44:37;23.80;55.00
61386;DHT22;47256;18.904;-99.054;2023-03-14T07:47:10;23.80;56.10
61386;DHT22;47256;18.904;-99.054;2023-03-14T07:49:37;23.90;55.10
61386;DHT22;47256;18.904;-99.054;2023-03-14T07:52:06;23.90;55.40
61386;DHT22;47256;18.904;-99.054;2023-03-14T07:54:33;23.90;56.20
61386;DHT22;47256;18.904;-99.054;2023-03-14T07:57:03;23.80;55.00
61386;DHT22;47256;18.904;-99.054;2023-03-14T07:59:30;23.70;56.60
61386;DHT22;47256;18.904;-99.054;2023-03-14T08:01:58;23.60;56.60
61386;DHT22;47256;18.904;-99.054;2023-03-14T08:04:25;23.70;55.80
61386;DHT22;47256;18.904;-99.054;2023-03-14T08:06:54;23.70;56.20
61386;DHT22;47256;18.904;-99.054;2023-03-14T08:09:22;23.60;56.80
61386;DHT22;47256;18.904;-99.054;2023-03-14T08:11:51;23.70;57.30
61386;DHT22;47256;18.904;-99.054;2023-03-14T08:14:18;23.50;57.00
61386;DHT22;47256;18.904;-99.054;2023-03-14T08:16:45;23.50;57.10
61386;DHT22;47256;18.904;-99.054;2023-03-14T08:19:12;23.50;56.70
61386;DHT22;47256;18.904;-99.054;2023-03-14T08:21:39;23.40;57.90
61386;DHT22;47256;18.904;-99.054;2023-03-14T08:24:07;23.30;58.00
61386;DHT22;47256;18.904;-99.054;2023-03-14T08:26:34;23.30;57.90
61386;DHT22;47256;18.904;-99.054;2023-03-14T08:29:02;23.30;58.00
61386;DHT22;47256;18.904;-99.054;2023-03-14T08:31:31;23.30;57.40
61386;DHT22;47256;18.904;-99.054;2023-03-14T08:34:02;23.30;57.60
61386;DHT22;47256;18.904;-99.054;2023-03-14T08:36:29;23.40;57.50
61386;DHT22;47256;18.904;-99.054;2023-03-14T08:39:01;23.40;57.70
61386;DHT22;47256;18.904;-99.054;2023-03-14T08:41:31;23.40;57.70
61386;DHT22;47256;18.904;-99.054;2023-03-14T08:44:01;23.30;58.00
61386;DHT22;47256;18.904;-99.054;2023-03-14T08:46:30;23.20;58.50
61386;DHT22;47256;18.904;-99.054;2023-03-14T08:48:57;23.10;58.90
61386;DHT22;47256;18.904;-99.054;2023-03-14T08:51:24;23.00;59.20
61386;DHT22;47256;18.904;-99.054;2023-03-14T08:53:59;22.80;59.70
61386;DHT22;47256;18.904;-99.054;2023-03-14T08:56:27;22.80;59.40
61386;DHT22;47256;18.904;-99.054;2023-03-14T08:58:56;22.80;59.90
61386;DHT22;47256;18.904;-99.054;2023-03-14T09:01:26;22.90;60.80
61386;DHT22;47256;18.904;-99.054;2023-03-14T09:03:53;22.90;59.20
61386;DHT22;47256;18.904;-99.054;2023-03-14T09:06:21;22.90;59.70
61386;DHT22;47256;18.904;-99.054;2023-03-14T09:08:48;22.90;60.10
61386;DHT22;47256;18.904;-99.054;2023-03-14T09:11:16;22.90;59.60
61386;DHT22;47256;18.904;-99.054;2023-03-14T09:13:45;22.80;60.00
61386;DHT22;47256;18.904;-99.054;2023-03-14T09:16:13;22.80;60.20
61386;DHT22;47256;18.904;-99.054;2023-03-14T09:18:41;22.80;60.30
61386;DHT22;47256;18.904;-99.054;2023-03-14T09:21:09;22.70;60.60
61386;DHT22;47256;18.904;-99.054;2023-03-14T09:23:36;22.80;60.30
61386;DHT22;47256;18.904;-99.054;2023-03-14T09:26:07;22.70;61.50
61386;DHT22;47256;18.904;-99.054;2023-03-14T09:28:36;22.60;61.20
61386;DHT22;47256;18.904;-99.054;2023-03-14T09:31:11;22.50;61.10
61386;DHT22;47256;18.904;-99.054;2023-03-14T09:33:41;22.40;61.50
61386;DHT22;47256;18.904;-99.054;2023-03-14T09:36:10;22.50;61.40
61386;DHT22;47256;18.904;-99.054;2023-03-14T09:38:37;22.60;61.50
61386;DHT22;47256;18.904;-99.054;2023-03-14T09:44:21;22.30;62.40
61386;DHT22;47256;18.904;-99.054;2023-03-14T09:46:53;22.10;62.20
61386;DHT22;47256;18.904;-99.054;2023-03-14T09:49:39;22.00;62.10
61386;DHT22;47256;18.904;-99.054;2023-03-14T09:52:28;22.00;62.10
61386;DHT22;47256;18.904;-99.054;2023-03-14T09:55:03;22.10;62.80
61386;DHT22;47256;18.904;-99.054;2023-03-14T09:57:34;21.90;62.80
61386;DHT22;47256;18.904;-99.054;2023-03-14T10:00:15;22.00;62.50
61386;DHT22;47256;18.904;-99.054;2023-03-14T10:02:57;21.90;62.90
61386;DHT22;47256;18.904;-99.054;2023-03-14T10:05:29;21.90;62.40
61386;DHT22;47256;18.904;-99.054;2023-03-14T10:07:56;22.00;62.50
61386;DHT22;47256;18.904;-99.054;2023-03-14T10:10:26;22.10;62.60
61386;DHT22;47256;18.904;-99.054;2023-03-14T10:13:23;22.20;62.60
61386;DHT22;47256;18.904;-99.054;2023-03-14T10:18:26;22.10;63.00
61386;DHT22;47256;18.904;-99.054;2023-03-14T10:21:25;22.10;63.10
61386;DHT22;47256;18.904;-99.054;2023-03-14T10:24:08;22.10;63.20
61386;DHT22;47256;18.904;-99.054;2023-03-14T10:26:37;22.10;63.20
61386;DHT22;47256;18.904;-99.054;2023-03-14T10:29:12;22.10;62.90
61386;DHT22;47256;18.904;-99.054;2023-03-14T10:32:04;22.10;63.40
61386;DHT22;47256;18.904;-99.054;2023-03-14T10:34:36;22.00;63.70
61386;DHT22;47256;18.904;-99.054;2023-03-14T10:37:23;22.00;64.20
61386;DHT22;47256;18.904;-99.054;2023-03-14T10:39:54;21.80;64.60
61386;DHT22;47256;18.904;-99.054;2023-03-14T10:42:30;21.80;64.20
61386;DHT22;47256;18.904;-99.054;2023-03-14T10:45:29;21.80;64.00
61386;DHT22;47256;18.904;-99.054;2023-03-14T10:47:54;21.80;64.60
61386;DHT22;47256;18.904;-99.054;2023-03-14T10:50:30;21.70;64.30
61386;DHT22;47256;18.904;-99.054;2023-03-14T10:53:02;21.80;64.60
61386;DHT22;47256;18.904;-99.054;2023-03-14T10:55:41;21.80;64.60
61386;DHT22;47256;18.904;-99.054;2023-03-14T10:58:28;21.80;64.60
61386;DHT22;47256;18.904;-99.054;2023-03-14T11:01:05;21.80;65.30
61386;DHT22;47256;18.904;-99.054;2023-03-14T11:03:38;21.70;64.70
61386;DHT22;47256;18.904;-99.054;2023-03-14T11:06:27;21.70;65.20
61386;DHT22;47256;18.904;-99.054;2023-03-14T11:09:31;21.50;65.80
61386;DHT22;47256;18.904;-99.054;2023-03-14T11:14:56;21.40;65.80
61386;DHT22;47256;18.904;-99.054;2023-03-14T11:25:59;21.30;66.60
61386;DHT22;47256;18.904;-99.054;2023-03-14T11:33:56;21.10;64.80
61386;DHT22;47256;18.904;-99.054;2023-03-14T11:36:41;21.10;64.70
61386;DHT22;47256;18.904;-99.054;2023-03-14T11:39:18;21.00;64.80
61386;DHT22;47256;18.904;-99.054;2023-03-14T11:41:57;20.90;65.60
61386;DHT22;47256;18.904;-99.054;2023-03-14T11:44:34;20.90;66.30
61386;DHT22;47256;18.904;-99.054;2023-03-14T11:47:12;20.90;66.00
61386;DHT22;47256;18.904;-99.054;2023-03-14T11:49:53;20.90;66.70
61386;DHT22;47256;18.904;-99.054;2023-03-14T11:52:39;21.00;66.50
61386;DHT22;47256;18.904;-99.054;2023-03-14T11:57:42;21.00;66.90
61386;DHT22;47256;18.904;-99.054;2023-03-14T12:00:22;20.70;66.60
61386;DHT22;47256;18.904;-99.054;2023-03-14T12:05:58;20.60;67.30
61386;DHT22;47256;18.904;-99.054;2023-03-14T12:08:47;20.70;66.30
61386;DHT22;47256;18.904;-99.054;2023-03-14T12:14:33;20.80;68.60
61386;DHT22;47256;18.904;-99.054;2023-03-14T12:17:53;20.90;68.10
61386;DHT22;47256;18.904;-99.054;2023-03-14T12:20:23;21.00;67.50
61386;DHT22;47256;18.904;-99.054;2023-03-14T12:23:01;21.10;67.50
61386;DHT22;47256;18.904;-99.054;2023-03-14T12:25:35;21.00;66.60
61386;DHT22;47256;18.904;-99.054;2023-03-14T12:28:20;20.90;68.20
61386;DHT22;47256;18.904;-99.054;2023-03-14T12:30:49;20.80;67.40
61386;DHT22;47256;18.904;-99.054;2023-03-14T12:33:20;20.80;68.30
61386;DHT22;47256;18.904;-99.054;2023-03-14T12:36:01;20.90;68.20
61386;DHT22;47256;18.904;-99.054;2023-03-14T12:38:43;20.90;67.40
61386;DHT22;47256;18.904;-99.054;2023-03-14T12:41:29;20.90;65.80
61386;DHT22;47256;18.904;-99.054;2023-03-14T12:49:45;20.90;65.70
61386;DHT22;47256;18.904;-99.054;2023-03-14T12:52:16;20.80;66.10
61386;DHT22;47256;18.904;-99.054;2023-03-14T12:57:36;20.80;66.70
61386;DHT22;47256;18.904;-99.054;2023-03-14T13:00:21;20.60;67.40
61386;DHT22;47256;18.904;-99.054;2023-03-14T13:02:50;20.60;67.30
61386;DHT22;47256;18.904;-99.054;2023-03-14T13:05:25;20.70;67.20
61386;DHT22;47256;18.904;-99.054;2023-03-14T13:10:26;20.70;67.60
61386;DHT22;47256;18.904;-99.054;2023-03-14T13:13:15;20.70;67.60
61386;DHT22;47256;18.904;-99.054;2023-03-14T13:15:47;20.80;67.50
61386;DHT22;47256;18.904;-99.054;2023-03-14T13:18:19;20.80;67.10
61386;DHT22;47256;18.904;-99.054;2023-03-14T13:20:54;20.80;66.10
61386;DHT22;47256;18.904;-99.054;2023-03-14T13:23:29;20.80;66.00
61386;DHT22;47256;18.904;-99.054;2023-03-14T13:26:00;20.90;66.50
61386;DHT22;47256;18.904;-99.054;2023-03-14T13:28:30;20.90;66.90
61386;DHT22;47256;18.904;-99.054;2023-03-14T13:31:01;20.90;66.60
61386;DHT22;47256;18.904;-99.054;2023-03-14T13:33:29;20.80;66.40
61386;DHT22;47256;18.904;-99.054;2023-03-14T13:36:04;20.90;66.50
61386;DHT22;47256;18.904;-99.054;2023-03-14T13:38:34;21.00;66.90
61386;DHT22;47256;18.904;-99.054;2023-03-14T13:41:11;21.10;66.60
61386;DHT22;47256;18.904;-99.054;2023-03-14T13:43:43;21.20;67.40
61386;DHT22;47256;18.904;-99.054;2023-03-14T13:46:22;21.30;67.10
61386;DHT22;47256;18.904;-99.054;2023-03-14T13:49:04;21.40;66.00
61386;DHT22;47256;18.904;-99.054;2023-03-14T13:51:36;21.50;65.30
61386;DHT22;47256;18.904;-99.054;2023-03-14T13:54:14;21.60;65.30
61386;DHT22;47256;18.904;-99.054;2023-03-14T13:56:43;21.70;65.70
61386;DHT22;47256;18.904;-99.054;2023-03-14T13:59:27;21.80;65.10
61386;DHT22;47256;18.904;-99.054;2023-03-14T14:02:20;21.90;65.90
61386;DHT22;47256;18.904;-99.054;2023-03-14T14:04:50;22.00;65.80
61386;DHT22;47256;18.904;-99.054;2023-03-14T14:07:18;22.10;63.00
61386;DHT22;47256;18.904;-99.054;2023-03-14T14:09:50;22.20;65.00
61386;DHT22;47256;18.904;-99.054;2023-03-14T14:12:30;22.20;63.50
61386;DHT22;47256;18.904;-99.054;2023-03-14T14:18:07;22.40;63.20
61386;DHT22;47256;18.904;-99.054;2023-03-14T14:20:45;22.50;64.40
61386;DHT22;47256;18.904;-99.054;2023-03-14T14:23:24;22.70;64.80
61386;DHT22;47256;18.904;-99.054;2023-03-14T14:25:57;22.90;65.60
61386;DHT22;47256;18.904;-99.054;2023-03-14T14:28:31;23.00;66.90
61386;DHT22;47256;18.904;-99.054;2023-03-14T14:31:21;23.10;66.40
61386;DHT22;47256;18.904;-99.054;2023-03-14T14:34:03;23.20;64.30
61386;DHT22;47256;18.904;-99.054;2023-03-14T14:36:40;23.30;64.70
61386;DHT22;47256;18.904;-99.054;2023-03-14T14:39:40;23.30;62.00
61386;DHT22;47256;18.904;-99.054;2023-03-14T14:42:04;23.50;63.40
61386;DHT22;47256;18.904;-99.054;2023-03-14T14:44:34;23.60;61.40
61386;DHT22;47256;18.904;-99.054;2023-03-14T14:47:04;23.70;62.00
61386;DHT22;47256;18.904;-99.054;2023-03-14T14:49:33;23.80;60.00
61386;DHT22;47256;18.904;-99.054;2023-03-14T14:52:12;24.00;60.20
61386;DHT22;47256;18.904;-99.054;2023-03-14T14:54:57;24.10;61.10
61386;DHT22;47256;18.904;-99.054;2023-03-14T14:57:32;24.20;61.70
61386;DHT22;47256;18.904;-99.054;2023-03-14T15:00:20;24.30;60.80
61386;DHT22;47256;18.904;-99.054;2023-03-14T15:02:59;24.50;61.40
61386;DHT22;47256;18.904;-99.054;2023-03-14T15:05:27;24.60;62.10
61386;DHT22;47256;18.904;-99.054;2023-03-14T15:07:58;24.60;59.00
61386;DHT22;47256;18.904;-99.054;2023-03-14T15:10:26;24.70;60.50
61386;DHT22;47256;18.904;-99.054;2023-03-14T15:12:54;24.80;61.30
61386;DHT22;47256;18.904;-99.054;2023-03-14T15:15:22;24.80;62.00
61386;DHT22;47256;18.904;-99.054;2023-03-14T15:17:49;24.90;61.60
61386;DHT22;47256;18.904;-99.054;2023-03-14T15:20:18;25.10;62.90
61386;DHT22;47256;18.904;-99.054;2023-03-14T15:22:46;25.30;62.10
61386;DHT22;47256;18.904;-99.054;2023-03-14T15:25:13;25.40;65.60
61386;DHT22;47256;18.904;-99.054;2023-03-14T15:27:41;25.50;64.10
61386;DHT22;47256;18.904;-99.054;2023-03-14T15:30:14;25.60;65.00
61386;DHT22;47256;18.904;-99.054;2023-03-14T15:32:42;25.60;64.60
61386;DHT22;47256;18.904;-99.054;2023-03-14T15:35:10;25.70;63.90
61386;DHT22;47256;18.904;-99.054;2023-03-14T15:37:38;25.80;64.70
61386;DHT22;47256;18.904;-99.054;2023-03-14T15:40:06;25.90;65.80
61386;DHT22;47256;18.904;-99.054;2023-03-14T15:42:41;26.10;65.60
61386;DHT22;47256;18.904;-99.054;2023-03-14T15:45:08;26.20;65.10
61386;DHT22;47256;18.904;-99.054;2023-03-14T15:47:36;26.40;65.30
61386;DHT22;47256;18.904;-99.054;2023-03-14T15:50:03;26.50;64.00
61386;DHT22;47256;18.904;-99.054;2023-03-14T15:52:32;26.60;64.60
61386;DHT22;47256;18.904;-99.054;2023-03-14T15:54:59;26.70;64.50
61386;DHT22;47256;18.904;-99.054;2023-03-14T15:57:29;26.80;65.00
61386;DHT22;47256;18.904;-99.054;2023-03-14T15:59:56;26.80;63.00
61386;DHT22;47256;18.904;-99.054;2023-03-14T16:02:31;26.90;63.40
61386;DHT22;47256;18.904;-99.054;2023-03-14T16:04:58;27.10;62.60
61386;DHT22;47256;18.904;-99.054;2023-03-14T16:07:25;27.40;63.20
61386;DHT22;47256;18.904;-99.054;2023-03-14T16:10:03;27.50;62.70
61386;DHT22;47256;18.904;-99.054;2023-03-14T16:12:33;27.60;63.40
61386;DHT22;47256;18.904;-99.054;2023-03-14T16:15:00;27.70;63.10
61386;DHT22;47256;18.904;-99.054;2023-03-14T16:17:28;27.90;63.50
61386;DHT22;47256;18.904;-99.054;2023-03-14T16:19:56;28.00;61.80
61386;DHT22;47256;18.904;-99.054;2023-03-14T16:22:24;28.10;62.20
61386;DHT22;47256;18.904;-99.054;2023-03-14T16:24:52;28.30;62.20
61386;DHT22;47256;18.904;-99.054;2023-03-14T16:27:19;28.40;62.30
61386;DHT22;47256;18.904;-99.054;2023-03-14T16:29:46;28.40;59.60
61386;DHT22;47256;18.904;-99.054;2023-03-14T16:32:14;28.50;58.80
61386;DHT22;47256;18.904;-99.054;2023-03-14T16:34:42;28.40;58.80
61386;DHT22;47256;18.904;-99.054;2023-03-14T16:37:10;28.40;59.10
61386;DHT22;47256;18.904;-99.054;2023-03-14T16:39:37;28.60;59.00